logo
Search for airport 
image banner adimage banner adimage banner ad
image banner ad

YWDM - Waddamana

Located in Waddamana, Australia

ICAO - , IATA -

Data provided by Airmate  

General information

Coordinates: S42°7'46" E146°44'45"
Elevation is 1894 feet MSL.
Magnetic variation is 14° East
View others Airports in Tasmania

Operational data

Special qualification required
Current time UTC:
Current local time:
Weather at : YMLT - Launceston ( 76 km )
METAR: YMLT 251600Z AUTO 17006KT 9999 // NCD 01/M00 Q1027 RF00.0/000.0
TAF: TAF YMLT 251122Z 2512/2612 VRB03KT CAVOK FM260300 34008KT 9999 SCT030
View NOTAMs / SUP AIP / TFR affecting this airport [VIEW]
Communications frequencies: [VIEW]

Runways:

Airport contact information

Address: Waddamana Australia

Satellite view of YWDM